sensor_id;sensor_type;location;lat;lon;timestamp;temperature;humidity
3086;DHT22;52812;48.960;9.108;2023-06-10T00:01:26;15.20;99.90
3086;DHT22;52812;48.960;9.108;2023-06-10T00:03:53;15.20;99.90
3086;DHT22;52812;48.960;9.108;2023-06-10T00:06:19;15.20;99.90
3086;DHT22;52812;48.960;9.108;2023-06-10T00:08:47;15.20;99.90
3086;DHT22;52812;48.960;9.108;2023-06-10T00:11:13;15.20;99.90
3086;DHT22;52812;48.960;9.108;2023-06-10T00:13:38;15.20;99.90
3086;DHT22;52812;48.960;9.108;2023-06-10T00:16:04;15.10;99.90
3086;DHT22;52812;48.960;9.108;2023-06-10T00:18:30;15.00;99.90
3086;DHT22;52812;48.960;9.108;2023-06-10T00:20:57;14.90;99.90
3086;DHT22;52812;48.960;9.108;2023-06-10T00:23:28;14.80;99.90
3086;DHT22;52812;48.960;9.108;2023-06-10T00:25:59;14.70;99.90
3086;DHT22;52812;48.960;9.108;2023-06-10T00:28:25;14.60;99.90
3086;DHT22;52812;48.960;9.108;2023-06-10T00:30:50;14.60;99.90
3086;DHT22;52812;48.960;9.108;2023-06-10T00:33:16;14.60;99.90
3086;DHT22;52812;48.960;9.108;2023-06-10T00:35:42;14.70;99.90
3086;DHT22;52812;48.960;9.108;2023-06-10T00:38:07;14.70;99.90
3086;DHT22;52812;48.960;9.108;2023-06-10T00:40:39;14.60;99.90
3086;DHT22;52812;48.960;9.108;2023-06-10T00:43:05;14.60;99.90
3086;DHT22;52812;48.960;9.108;2023-06-10T00:45:31;14.70;99.90
3086;DHT22;52812;48.960;9.108;2023-06-10T00:47:57;14.60;99.90
3086;DHT22;52812;48.960;9.108;2023-06-10T00:50:23;14.60;99.90
3086;DHT22;52812;48.960;9.108;2023-06-10T00:52:49;14.50;99.90
3086;DHT22;52812;48.960;9.108;2023-06-10T00:55:16;14.40;99.90
3086;DHT22;52812;48.960;9.108;2023-06-10T00:57:44;14.30;99.90
3086;DHT22;52812;48.960;9.108;2023-06-10T01:00:11;14.30;99.90
3086;DHT22;52812;48.960;9.108;2023-06-10T01:02:37;14.30;99.90
3086;DHT22;52812;48.960;9.108;2023-06-10T01:05:03;14.20;99.90
3086;DHT22;52812;48.960;9.108;2023-06-10T01:07:56;14.20;99.90
3086;DHT22;52812;48.960;9.108;2023-06-10T01:10:33;14.10;99.90
3086;DHT22;52812;48.960;9.108;2023-06-10T01:13:03;14.10;99.90
3086;DHT22;52812;48.960;9.108;2023-06-10T01:15:31;14.00;99.90
3086;DHT22;52812;48.960;9.108;2023-06-10T01:18:04;13.90;99.90
3086;DHT22;52812;48.960;9.108;2023-06-10T01:20:31;13.90;99.90
3086;DHT22;52812;48.960;9.108;2023-06-10T01:23:01;14.00;99.90
3086;DHT22;52812;48.960;9.108;2023-06-10T01:25:28;14.00;99.90
3086;DHT22;52812;48.960;9.108;2023-06-10T01:30:27;13.90;99.90
3086;DHT22;52812;48.960;9.108;2023-06-10T01:32:55;13.90;99.90
3086;DHT22;52812;48.960;9.108;2023-06-10T01:35:24;13.80;99.90
3086;DHT22;52812;48.960;9.108;2023-06-10T01:37:53;13.80;99.90
3086;DHT22;52812;48.960;9.108;2023-06-10T01:40:20;13.70;99.90
3086;DHT22;52812;48.960;9.108;2023-06-10T01:42:46;13.70;99.90
3086;DHT22;52812;48.960;9.108;2023-06-10T01:45:11;13.70;99.90
3086;DHT22;52812;48.960;9.108;2023-06-10T01:47:37;13.70;99.90
3086;DHT22;52812;48.960;9.108;2023-06-10T01:50:03;13.60;99.90
3086;DHT22;52812;48.960;9.108;2023-06-10T01:52:28;13.60;99.90
3086;DHT22;52812;48.960;9.108;2023-06-10T01:54:54;13.60;99.90
3086;DHT22;52812;48.960;9.108;2023-06-10T01:57:20;13.60;99.90
3086;DHT22;52812;48.960;9.108;2023-06-10T01:59:45;13.50;99.90
3086;DHT22;52812;48.960;9.108;2023-06-10T02:02:11;13.50;99.90
3086;DHT22;52812;48.960;9.108;2023-06-10T02:04:37;13.50;99.90
3086;DHT22;52812;48.960;9.108;2023-06-10T02:07:03;13.50;99.90
3086;DHT22;52812;48.960;9.108;2023-06-10T02:09:30;13.40;99.90
3086;DHT22;52812;48.960;9.108;2023-06-10T02:11:55;13.40;99.90
3086;DHT22;52812;48.960;9.108;2023-06-10T02:14:21;13.40;99.90
3086;DHT22;52812;48.960;9.108;2023-06-10T02:16:46;13.40;99.90
3086;DHT22;52812;48.960;9.108;2023-06-10T02:19:13;13.40;99.90
3086;DHT22;52812;48.960;9.108;2023-06-10T02:21:38;13.40;99.90
3086;DHT22;52812;48.960;9.108;2023-06-10T02:24:05;13.30;99.90
3086;DHT22;52812;48.960;9.108;2023-06-10T02:26:31;13.30;99.90
3086;DHT22;52812;48.960;9.108;2023-06-10T02:28:57;13.20;99.90
3086;DHT22;52812;48.960;9.108;2023-06-10T02:31:22;13.20;99.90
3086;DHT22;52812;48.960;9.108;2023-06-10T02:33:49;13.10;99.90
3086;DHT22;52812;48.960;9.108;2023-06-10T02:36:14;13.10;99.90
3086;DHT22;52812;48.960;9.108;2023-06-10T02:38:41;13.10;99.90
3086;DHT22;52812;48.960;9.108;2023-06-10T02:41:06;13.10;99.90
3086;DHT22;52812;48.960;9.108;2023-06-10T02:43:32;13.20;99.90
3086;DHT22;52812;48.960;9.108;2023-06-10T02:45:57;13.10;99.90
3086;DHT22;52812;48.960;9.108;2023-06-10T02:48:27;13.10;99.90
3086;DHT22;52812;48.960;9.108;2023-06-10T02:50:53;13.00;99.90
3086;DHT22;52812;48.960;9.108;2023-06-10T02:53:19;13.00;99.90
3086;DHT22;52812;48.960;9.108;2023-06-10T02:55:44;13.00;99.90
3086;DHT22;52812;48.960;9.108;2023-06-10T02:58:10;13.00;99.90
3086;DHT22;52812;48.960;9.108;2023-06-10T03:00:35;13.00;99.90
3086;DHT22;52812;48.960;9.108;2023-06-10T03:03:02;13.00;99.90
3086;DHT22;52812;48.960;9.108;2023-06-10T03:05:29;13.00;99.90
3086;DHT22;52812;48.960;9.108;2023-06-10T03:07:55;12.90;99.90
3086;DHT22;52812;48.960;9.108;2023-06-10T03:10:20;12.80;99.90
3086;DHT22;52812;48.960;9.108;2023-06-10T03:12:46;12.80;99.90
3086;DHT22;52812;48.960;9.108;2023-06-10T03:15:12;12.80;99.90
3086;DHT22;52812;48.960;9.108;2023-06-10T03:17:37;12.80;99.90
3086;DHT22;52812;48.960;9.108;2023-06-10T03:20:03;12.80;99.90
3086;DHT22;52812;48.960;9.108;2023-06-10T03:22:33;12.80;99.90
3086;DHT22;52812;48.960;9.108;2023-06-10T03:24:59;12.80;99.90
3086;DHT22;52812;48.960;9.108;2023-06-10T03:27:25;12.90;99.90
3086;DHT22;52812;48.960;9.108;2023-06-10T03:29:51;12.90;99.90
3086;DHT22;52812;48.960;9.108;2023-06-10T03:32:16;12.80;99.90
3086;DHT22;52812;48.960;9.108;2023-06-10T03:34:43;12.80;99.90
3086;DHT22;52812;48.960;9.108;2023-06-10T03:37:10;12.80;99.90
3086;DHT22;52812;48.960;9.108;2023-06-10T03:39:36;12.80;99.90
3086;DHT22;52812;48.960;9.108;2023-06-10T03:42:02;12.80;99.90
3086;DHT22;52812;48.960;9.108;2023-06-10T03:44:27;12.90;99.90
3086;DHT22;52812;48.960;9.108;2023-06-10T03:46:54;12.80;99.90
3086;DHT22;52812;48.960;9.108;2023-06-10T03:49:20;12.80;99.90
3086;DHT22;52812;48.960;9.108;2023-06-10T03:51:46;12.90;99.90
3086;DHT22;52812;48.960;9.108;2023-06-10T03:54:12;13.00;99.90
3086;DHT22;52812;48.960;9.108;2023-06-10T03:56:39;13.10;99.90
3086;DHT22;52812;48.960;9.108;2023-06-10T03:59:04;13.20;99.90
3086;DHT22;52812;48.960;9.108;2023-06-10T04:01:30;13.30;99.90
3086;DHT22;52812;48.960;9.108;2023-06-10T04:03:56;13.30;99.90
3086;DHT22;52812;48.960;9.108;2023-06-10T04:06:22;13.30;99.90
3086;DHT22;52812;48.960;9.108;2023-06-10T04:08:50;13.40;99.90
3086;DHT22;52812;48.960;9.108;2023-06-10T04:11:16;13.50;99.90
3086;DHT22;52812;48.960;9.108;2023-06-10T04:13:42;13.60;99.90
3086;DHT22;52812;48.960;9.108;2023-06-10T04:16:08;13.70;99.90
3086;DHT22;52812;48.960;9.108;2023-06-10T04:18:34;13.70;99.90
3086;DHT22;52812;48.960;9.108;2023-06-10T04:20:59;13.80;99.90
3086;DHT22;52812;48.960;9.108;2023-06-10T04:23:25;13.80;99.90
3086;DHT22;52812;48.960;9.108;2023-06-10T04:25:51;13.90;99.90
3086;DHT22;52812;48.960;9.108;2023-06-10T04:28:17;14.10;99.90
3086;DHT22;52812;48.960;9.108;2023-06-10T04:30:42;14.20;99.90
3086;DHT22;52812;48.960;9.108;2023-06-10T04:33:09;14.30;99.90
3086;DHT22;52812;48.960;9.108;2023-06-10T04:35:38;14.40;99.90
3086;DHT22;52812;48.960;9.108;2023-06-10T04:38:03;14.40;99.90
3086;DHT22;52812;48.960;9.108;2023-06-10T04:40:29;14.50;99.90
3086;DHT22;52812;48.960;9.108;2023-06-10T04:42:55;14.50;99.90
3086;DHT22;52812;48.960;9.108;2023-06-10T04:45:20;14.60;99.90
3086;DHT22;52812;48.960;9.108;2023-06-10T04:47:46;14.70;99.90
3086;DHT22;52812;48.960;9.108;2023-06-10T04:50:11;14.80;99.90
3086;DHT22;52812;48.960;9.108;2023-06-10T04:52:37;14.90;99.90
3086;DHT22;52812;48.960;9.108;2023-06-10T04:55:03;15.00;99.90
3086;DHT22;52812;48.960;9.108;2023-06-10T04:57:29;15.10;99.90
3086;DHT22;52812;48.960;9.108;2023-06-10T04:59:55;15.30;99.90
3086;DHT22;52812;48.960;9.108;2023-06-10T05:02:20;15.40;99.90
3086;DHT22;52812;48.960;9.108;2023-06-10T05:04:46;15.50;99.90
3086;DHT22;52812;48.960;9.108;2023-06-10T05:07:12;15.60;99.90
3086;DHT22;52812;48.960;9.108;2023-06-10T05:09:38;15.70;99.90
3086;DHT22;52812;48.960;9.108;2023-06-10T05:12:04;15.80;99.90
3086;DHT22;52812;48.960;9.108;2023-06-10T05:14:30;15.80;99.90
3086;DHT22;52812;48.960;9.108;2023-06-10T05:16:56;15.90;99.90
3086;DHT22;52812;48.960;9.108;2023-06-10T05:19:22;16.00;99.90
3086;DHT22;52812;48.960;9.108;2023-06-10T05:21:48;16.10;99.90
3086;DHT22;52812;48.960;9.108;2023-06-10T05:24:13;16.20;99.90
3086;DHT22;52812;48.960;9.108;2023-06-10T05:26:39;16.30;99.90
3086;DHT22;52812;48.960;9.108;2023-06-10T05:29:07;16.40;99.90
3086;DHT22;52812;48.960;9.108;2023-06-10T05:31:33;16.50;99.90
3086;DHT22;52812;48.960;9.108;2023-06-10T05:33:58;16.60;99.90
3086;DHT22;52812;48.960;9.108;2023-06-10T05:36:24;16.70;99.90
3086;DHT22;52812;48.960;9.108;2023-06-10T05:38:53;16.80;99.90
3086;DHT22;52812;48.960;9.108;2023-06-10T05:41:18;16.90;99.90
3086;DHT22;52812;48.960;9.108;2023-06-10T05:43:44;17.10;99.90
3086;DHT22;52812;48.960;9.108;2023-06-10T05:46:09;17.20;99.90
3086;DHT22;52812;48.960;9.108;2023-06-10T05:48:35;17.30;99.90
3086;DHT22;52812;48.960;9.108;2023-06-10T05:51:01;17.40;99.90
3086;DHT22;52812;48.960;9.108;2023-06-10T05:53:27;17.60;99.90
3086;DHT22;52812;48.960;9.108;2023-06-10T05:55:53;17.80;99.90
3086;DHT22;52812;48.960;9.108;2023-06-10T05:58:23;18.00;99.90
3086;DHT22;52812;48.960;9.108;2023-06-10T06:00:48;18.20;99.90
3086;DHT22;52812;48.960;9.108;2023-06-10T06:03:14;18.70;99.90
3086;DHT22;52812;48.960;9.108;2023-06-10T06:05:40;19.50;99.90
3086;DHT22;52812;48.960;9.108;2023-06-10T06:08:06;20.60;99.90
3086;DHT22;52812;48.960;9.108;2023-06-10T06:10:32;21.70;99.90
3086;DHT22;52812;48.960;9.108;2023-06-10T06:12:58;22.40;99.90
3086;DHT22;52812;48.960;9.108;2023-06-10T06:15:23;23.00;99.90
3086;DHT22;52812;48.960;9.108;2023-06-10T06:17:49;23.60;99.90
3086;DHT22;52812;48.960;9.108;2023-06-10T06:20:18;24.30;99.90
3086;DHT22;52812;48.960;9.108;2023-06-10T06:22:44;24.60;99.90
3086;DHT22;52812;48.960;9.108;2023-06-10T06:25:09;25.00;99.90
3086;DHT22;52812;48.960;9.108;2023-06-10T06:27:35;25.20;99.90
3086;DHT22;52812;48.960;9.108;2023-06-10T06:30:01;25.40;99.90
3086;DHT22;52812;48.960;9.108;2023-06-10T06:32:26;26.00;99.90
3086;DHT22;52812;48.960;9.108;2023-06-10T06:34:53;26.30;99.90
3086;DHT22;52812;48.960;9.108;2023-06-10T06:37:24;26.20;99.90
3086;DHT22;52812;48.960;9.108;2023-06-10T06:39:51;26.30;99.90
3086;DHT22;52812;48.960;9.108;2023-06-10T06:42:16;26.20;99.90
3086;DHT22;52812;48.960;9.108;2023-06-10T06:44:42;26.30;99.90
3086;DHT22;52812;48.960;9.108;2023-06-10T06:47:08;26.40;99.90
3086;DHT22;52812;48.960;9.108;2023-06-10T06:49:34;26.40;99.90
3086;DHT22;52812;48.960;9.108;2023-06-10T06:52:00;26.80;99.90
3086;DHT22;52812;48.960;9.108;2023-06-10T06:54:25;27.20;99.90
3086;DHT22;52812;48.960;9.108;2023-06-10T06:56:51;27.00;99.90
3086;DHT22;52812;48.960;9.108;2023-06-10T06:59:17;27.00;99.90
3086;DHT22;52812;48.960;9.108;2023-06-10T07:01:45;27.30;99.90
3086;DHT22;52812;48.960;9.108;2023-06-10T07:04:11;27.90;99.90
3086;DHT22;52812;48.960;9.108;2023-06-10T07:06:37;27.50;99.90
3086;DHT22;52812;48.960;9.108;2023-06-10T07:09:04;27.20;99.90
3086;DHT22;52812;48.960;9.108;2023-06-10T07:11:30;26.90;99.90
3086;DHT22;52812;48.960;9.108;2023-06-10T07:13:56;27.00;99.90
3086;DHT22;52812;48.960;9.108;2023-06-10T07:16:22;27.30;99.90
3086;DHT22;52812;48.960;9.108;2023-06-10T07:18:47;27.70;99.90
3086;DHT22;52812;48.960;9.108;2023-06-10T07:21:13;27.70;99.90
3086;DHT22;52812;48.960;9.108;2023-06-10T07:23:42;28.00;99.90
3086;DHT22;52812;48.960;9.108;2023-06-10T07:26:08;27.60;99.90
3086;DHT22;52812;48.960;9.108;2023-06-10T07:28:37;27.60;99.90
3086;DHT22;52812;48.960;9.108;2023-06-10T07:31:02;28.20;99.90
3086;DHT22;52812;48.960;9.108;2023-06-10T07:33:28;28.40;99.90
3086;DHT22;52812;48.960;9.108;2023-06-10T07:35:54;28.10;99.90
3086;DHT22;52812;48.960;9.108;2023-06-10T07:38:19;28.30;99.90
3086;DHT22;52812;48.960;9.108;2023-06-10T07:40:46;28.50;99.90
3086;DHT22;52812;48.960;9.108;2023-06-10T07:43:11;28.40;99.90
3086;DHT22;52812;48.960;9.108;2023-06-10T07:45:39;28.70;99.90
3086;DHT22;52812;48.960;9.108;2023-06-10T07:48:05;28.40;99.90
3086;DHT22;52812;48.960;9.108;2023-06-10T07:50:31;28.20;99.90
3086;DHT22;52812;48.960;9.108;2023-06-10T07:52:56;28.20;99.90
3086;DHT22;52812;48.960;9.108;2023-06-10T07:55:22;28.00;99.90
3086;DHT22;52812;48.960;9.108;2023-06-10T07:57:54;28.10;99.90
3086;DHT22;52812;48.960;9.108;2023-06-10T08:00:23;29.10;99.90
3086;DHT22;52812;48.960;9.108;2023-06-10T08:02:48;29.00;99.90
3086;DHT22;52812;48.960;9.108;2023-06-10T08:05:14;28.60;99.90
3086;DHT22;52812;48.960;9.108;2023-06-10T08:07:40;28.90;99.90
3086;DHT22;52812;48.960;9.108;2023-06-10T08:10:06;29.40;99.90
3086;DHT22;52812;48.960;9.108;2023-06-10T08:12:33;29.50;99.90
3086;DHT22;52812;48.960;9.108;2023-06-10T08:14:59;29.40;99.90
3086;DHT22;52812;48.960;9.108;2023-06-10T08:17:25;28.80;99.90
3086;DHT22;52812;48.960;9.108;2023-06-10T08:19:51;28.40;99.90
3086;DHT22;52812;48.960;9.108;2023-06-10T08:22:16;28.40;99.90
3086;DHT22;52812;48.960;9.108;2023-06-10T08:24:42;28.20;99.90
3086;DHT22;52812;48.960;9.108;2023-06-10T08:27:08;28.00;99.90
3086;DHT22;52812;48.960;9.108;2023-06-10T08:29:34;28.40;99.90
3086;DHT22;52812;48.960;9.108;2023-06-10T08:32:00;28.20;99.90
3086;DHT22;52812;48.960;9.108;2023-06-10T08:34:28;28.30;99.90
3086;DHT22;52812;48.960;9.108;2023-06-10T08:36:54;27.90;99.90
3086;DHT22;52812;48.960;9.108;2023-06-10T08:39:21;28.10;99.90
3086;DHT22;52812;48.960;9.108;2023-06-10T08:44:40;28.40;99.90
3086;DHT22;52812;48.960;9.108;2023-06-10T08:47:16;28.60;99.90
3086;DHT22;52812;48.960;9.108;2023-06-10T08:49:46;28.60;99.90
3086;DHT22;52812;48.960;9.108;2023-06-10T08:52:21;28.30;99.90
3086;DHT22;52812;48.960;9.108;2023-06-10T08:54:54;28.00;99.90
3086;DHT22;52812;48.960;9.108;2023-06-10T08:57:22;28.20;99.90
3086;DHT22;52812;48.960;9.108;2023-06-10T08:59:48;27.70;99.90
3086;DHT22;52812;48.960;9.108;2023-06-10T09:02:15;27.70;99.90
3086;DHT22;52812;48.960;9.108;2023-06-10T09:04:44;27.60;99.90
3086;DHT22;52812;48.960;9.108;2023-06-10T09:07:12;28.00;99.90
3086;DHT22;52812;48.960;9.108;2023-06-10T09:09:40;28.00;99.90
3086;DHT22;52812;48.960;9.108;2023-06-10T09:12:07;27.90;99.90
3086;DHT22;52812;48.960;9.108;2023-06-10T09:14:36;27.50;99.90
3086;DHT22;52812;48.960;9.108;2023-06-10T09:17:04;27.40;99.90
3086;DHT22;52812;48.960;9.108;2023-06-10T09:19:30;26.90;99.90
3086;DHT22;52812;48.960;9.108;2023-06-10T09:21:56;27.20;99.90
3086;DHT22;52812;48.960;9.108;2023-06-10T09:24:22;27.40;99.90
3086;DHT22;52812;48.960;9.108;2023-06-10T09:26:49;27.10;99.90
3086;DHT22;52812;48.960;9.108;2023-06-10T09:29:17;27.20;99.90
3086;DHT22;52812;48.960;9.108;2023-06-10T09:31:43;27.20;99.90
3086;DHT22;52812;48.960;9.108;2023-06-10T09:34:14;27.30;99.90
3086;DHT22;52812;48.960;9.108;2023-06-10T09:36:44;27.20;99.90
3086;DHT22;52812;48.960;9.108;2023-06-10T09:39:15;26.40;99.90
3086;DHT22;52812;48.960;9.108;2023-06-10T09:41:42;25.90;99.90
3086;DHT22;52812;48.960;9.108;2023-06-10T09:44:18;25.70;99.90
3086;DHT22;52812;48.960;9.108;2023-06-10T09:46:49;25.70;99.90
3086;DHT22;52812;48.960;9.108;2023-06-10T09:49:20;25.70;99.90
3086;DHT22;52812;48.960;9.108;2023-06-10T09:51:53;25.90;99.90
3086;DHT22;52812;48.960;9.108;2023-06-10T09:54:20;26.10;99.90
3086;DHT22;52812;48.960;9.108;2023-06-10T09:56:51;25.80;99.90
3086;DHT22;52812;48.960;9.108;2023-06-10T09:59:28;25.80;99.90
3086;DHT22;52812;48.960;9.108;2023-06-10T10:01:55;25.90;99.90
3086;DHT22;52812;48.960;9.108;2023-06-10T10:04:25;25.80;99.90
3086;DHT22;52812;48.960;9.108;2023-06-10T10:06:51;25.80;99.90
3086;DHT22;52812;48.960;9.108;2023-06-10T10:09:16;26.30;99.90
3086;DHT22;52812;48.960;9.108;2023-06-10T10:11:43;26.70;99.90
3086;DHT22;52812;48.960;9.108;2023-06-10T10:14:09;26.70;99.90
3086;DHT22;52812;48.960;9.108;2023-06-10T10:16:43;26.90;99.90
3086;DHT22;52812;48.960;9.108;2023-06-10T10:19:31;27.00;99.90
3086;DHT22;52812;48.960;9.108;2023-06-10T10:22:08;27.10;99.90
3086;DHT22;52812;48.960;9.108;2023-06-10T10:24:39;27.20;99.90
3086;DHT22;52812;48.960;9.108;2023-06-10T10:27:14;27.20;99.90
3086;DHT22;52812;48.960;9.108;2023-06-10T10:29:44;27.20;99.90
3086;DHT22;52812;48.960;9.108;2023-06-10T10:32:13;27.50;99.90
3086;DHT22;52812;48.960;9.108;2023-06-10T10:34:50;27.60;99.90
3086;DHT22;52812;48.960;9.108;2023-06-10T10:37:20;27.30;99.90
3086;DHT22;52812;48.960;9.108;2023-06-10T10:39:47;27.10;99.90
3086;DHT22;52812;48.960;9.108;2023-06-10T10:42:13;27.10;99.90
3086;DHT22;52812;48.960;9.108;2023-06-10T10:44:39;27.30;99.90
3086;DHT22;52812;48.960;9.108;2023-06-10T10:47:08;27.00;99.90
3086;DHT22;52812;48.960;9.108;2023-06-10T10:49:37;26.90;99.90
3086;DHT22;52812;48.960;9.108;2023-06-10T10:52:03;27.00;99.90
3086;DHT22;52812;48.960;9.108;2023-06-10T10:54:36;26.90;99.90
3086;DHT22;52812;48.960;9.108;2023-06-10T10:59:51;26.80;99.90
3086;DHT22;52812;48.960;9.108;2023-06-10T11:02:41;27.20;99.90
3086;DHT22;52812;48.960;9.108;2023-06-10T11:05:18;27.30;99.90
3086;DHT22;52812;48.960;9.108;2023-06-10T11:07:55;27.20;99.90
3086;DHT22;52812;48.960;9.108;2023-06-10T11:12:54;27.50;99.90
3086;DHT22;52812;48.960;9.108;2023-06-10T11:15:27;27.30;99.90
3086;DHT22;52812;48.960;9.108;2023-06-10T11:18:12;27.10;99.90
3086;DHT22;52812;48.960;9.108;2023-06-10T11:23:24;26.60;99.90
3086;DHT22;52812;48.960;9.108;2023-06-10T11:25:50;26.70;99.90
3086;DHT22;52812;48.960;9.108;2023-06-10T11:28:19;27.00;99.90
3086;DHT22;52812;48.960;9.108;2023-06-10T11:30:46;27.30;99.90
3086;DHT22;52812;48.960;9.108;2023-06-10T11:33:16;27.20;99.90
3086;DHT22;52812;48.960;9.108;2023-06-10T11:35:43;27.10;99.90
3086;DHT22;52812;48.960;9.108;2023-06-10T11:38:09;27.30;99.90
3086;DHT22;52812;48.960;9.108;2023-06-10T11:40:36;27.60;99.90
3086;DHT22;52812;48.960;9.108;2023-06-10T11:43:04;28.00;99.90
3086;DHT22;52812;48.960;9.108;2023-06-10T11:45:30;28.00;99.90
3086;DHT22;52812;48.960;9.108;2023-06-10T11:47:59;27.90;99.90
3086;DHT22;52812;48.960;9.108;2023-06-10T11:50:32;27.70;99.90
3086;DHT22;52812;48.960;9.108;2023-06-10T11:52:58;27.60;99.90
3086;DHT22;52812;48.960;9.108;2023-06-10T11:55:48;27.30;99.90
3086;DHT22;52812;48.960;9.108;2023-06-10T11:58:21;27.00;99.90
3086;DHT22;52812;48.960;9.108;2023-06-10T12:00:51;27.00;99.90
3086;DHT22;52812;48.960;9.108;2023-06-10T12:03:17;27.10;99.90
3086;DHT22;52812;48.960;9.108;2023-06-10T12:05:57;27.30;99.90
3086;DHT22;52812;48.960;9.108;2023-06-10T12:08:23;27.50;99.90
3086;DHT22;52812;48.960;9.108;2023-06-10T12:10:48;27.70;99.90
3086;DHT22;52812;48.960;9.108;2023-06-10T12:13:14;27.90;99.90
3086;DHT22;52812;48.960;9.108;2023-06-10T12:15:40;28.00;99.90
3086;DHT22;52812;48.960;9.108;2023-06-10T12:18:06;27.80;99.90
3086;DHT22;52812;48.960;9.108;2023-06-10T12:20:32;27.70;99.90
3086;DHT22;52812;48.960;9.108;2023-06-10T12:23:00;27.30;99.90
3086;DHT22;52812;48.960;9.108;2023-06-10T12:25:28;27.20;99.90
3086;DHT22;52812;48.960;9.108;2023-06-10T12:27:56;27.10;99.90
3086;DHT22;52812;48.960;9.108;2023-06-10T12:30:24;27.30;99.90
3086;DHT22;52812;48.960;9.108;2023-06-10T12:32:50;27.40;99.90
3086;DHT22;52812;48.960;9.108;2023-06-10T12:35:22;27.70;99.90
3086;DHT22;52812;48.960;9.108;2023-06-10T12:42:58;27.60;99.20
3086;DHT22;52812;48.960;9.108;2023-06-10T12:45:32;27.70;99.40
3086;DHT22;52812;48.960;9.108;2023-06-10T12:48:24;27.80;99.60
3086;DHT22;52812;48.960;9.108;2023-06-10T12:50:52;27.90;98.80
3086;DHT22;52812;48.960;9.108;2023-06-10T12:53:19;27.90;99.90
3086;DHT22;52812;48.960;9.108;2023-06-10T12:55:45;27.90;99.90
3086;DHT22;52812;48.960;9.108;2023-06-10T12:58:11;27.70;99.90
3086;DHT22;52812;48.960;9.108;2023-06-10T13:00:38;27.80;99.90
3086;DHT22;52812;48.960;9.108;2023-06-10T13:03:04;27.70;99.40
3086;DHT22;52812;48.960;9.108;2023-06-10T13:05:32;27.60;99.10
3086;DHT22;52812;48.960;9.108;2023-06-10T13:07:58;27.60;99.10
3086;DHT22;52812;48.960;9.108;2023-06-10T13:10:24;27.50;98.80
3086;DHT22;52812;48.960;9.108;2023-06-10T13:12:51;27.30;99.00
3086;DHT22;52812;48.960;9.108;2023-06-10T13:15:17;27.10;98.40
3086;DHT22;52812;48.960;9.108;2023-06-10T13:17:46;27.10;98.90
3086;DHT22;52812;48.960;9.108;2023-06-10T13:20:16;27.10;98.30
3086;DHT22;52812;48.960;9.108;2023-06-10T13:22:42;27.30;98.70
3086;DHT22;52812;48.960;9.108;2023-06-10T13:25:08;27.40;99.50
3086;DHT22;52812;48.960;9.108;2023-06-10T13:27:35;27.80;98.20
3086;DHT22;52812;48.960;9.108;2023-06-10T13:30:04;27.90;98.10
3086;DHT22;52812;48.960;9.108;2023-06-10T13:32:30;28.00;97.80
3086;DHT22;52812;48.960;9.108;2023-06-10T13:34:57;27.80;97.30
3086;DHT22;52812;48.960;9.108;2023-06-10T13:37:23;27.90;97.10
3086;DHT22;52812;48.960;9.108;2023-06-10T13:39:49;27.90;96.60
3086;DHT22;52812;48.960;9.108;2023-06-10T13:42:19;27.90;96.80
3086;DHT22;52812;48.960;9.108;2023-06-10T13:44:46;27.90;97.60
3086;DHT22;52812;48.960;9.108;2023-06-10T13:47:13;28.10;97.30
3086;DHT22;52812;48.960;9.108;2023-06-10T13:49:38;28.30;98.20
3086;DHT22;52812;48.960;9.108;2023-06-10T13:52:06;28.20;98.20
3086;DHT22;52812;48.960;9.108;2023-06-10T13:54:32;28.10;97.90
3086;DHT22;52812;48.960;9.108;2023-06-10T13:56:58;27.90;97.70
3086;DHT22;52812;48.960;9.108;2023-06-10T13:59:25;27.60;97.60
3086;DHT22;52812;48.960;9.108;2023-06-10T14:01:51;27.30;98.30
3086;DHT22;52812;48.960;9.108;2023-06-10T14:04:17;27.20;99.20
3086;DHT22;52812;48.960;9.108;2023-06-10T14:06:42;27.00;99.70
3086;DHT22;52812;48.960;9.108;2023-06-10T14:09:10;26.90;99.60
3086;DHT22;52812;48.960;9.108;2023-06-10T14:11:40;26.90;99.20
3086;DHT22;52812;48.960;9.108;2023-06-10T14:14:06;26.80;99.30
3086;DHT22;52812;48.960;9.108;2023-06-10T14:16:32;26.90;99.80
3086;DHT22;52812;48.960;9.108;2023-06-10T14:18:58;26.90;99.60
3086;DHT22;52812;48.960;9.108;2023-06-10T14:21:23;26.90;98.80
3086;DHT22;52812;48.960;9.108;2023-06-10T14:23:49;27.00;99.90
3086;DHT22;52812;48.960;9.108;2023-06-10T14:26:17;27.30;99.30
3086;DHT22;52812;48.960;9.108;2023-06-10T14:28:42;27.50;97.90
3086;DHT22;52812;48.960;9.108;2023-06-10T14:31:08;27.70;98.20
3086;DHT22;52812;48.960;9.108;2023-06-10T14:33:34;27.90;98.90
3086;DHT22;52812;48.960;9.108;2023-06-10T14:35:59;28.00;98.10
3086;DHT22;52812;48.960;9.108;2023-06-10T14:38:25;27.70;97.90
3086;DHT22;52812;48.960;9.108;2023-06-10T14:40:51;27.40;97.60
3086;DHT22;52812;48.960;9.108;2023-06-10T14:43:18;27.20;97.30
3086;DHT22;52812;48.960;9.108;2023-06-10T14:45:43;26.90;97.50
3086;DHT22;52812;48.960;9.108;2023-06-10T14:48:10;26.80;97.30
3086;DHT22;52812;48.960;9.108;2023-06-10T14:50:37;26.70;98.00
3086;DHT22;52812;48.960;9.108;2023-06-10T14:53:03;26.70;98.30
3086;DHT22;52812;48.960;9.108;2023-06-10T14:55:28;26.80;98.70
3086;DHT22;52812;48.960;9.108;2023-06-10T14:57:54;26.80;98.90
3086;DHT22;52812;48.960;9.108;2023-06-10T15:00:21;27.10;98.50
3086;DHT22;52812;48.960;9.108;2023-06-10T15:02:49;27.40;98.60
3086;DHT22;52812;48.960;9.108;2023-06-10T15:05:16;27.70;98.60
3086;DHT22;52812;48.960;9.108;2023-06-10T15:07:43;27.70;97.20
3086;DHT22;52812;48.960;9.108;2023-06-10T15:10:09;27.60;97.20
3086;DHT22;52812;48.960;9.108;2023-06-10T15:12:35;27.40;98.20
3086;DHT22;52812;48.960;9.108;2023-06-10T15:15:02;27.20;98.60
3086;DHT22;52812;48.960;9.108;2023-06-10T15:17:28;26.90;98.40
3086;DHT22;52812;48.960;9.108;2023-06-10T15:19:54;26.80;98.50
3086;DHT22;52812;48.960;9.108;2023-06-10T15:22:20;26.70;98.80
3086;DHT22;52812;48.960;9.108;2023-06-10T15:24:45;26.60;98.70
3086;DHT22;52812;48.960;9.108;2023-06-10T15:27:11;26.70;98.30
3086;DHT22;52812;48.960;9.108;2023-06-10T15:29:37;26.70;98.60
3086;DHT22;52812;48.960;9.108;2023-06-10T15:32:02;26.90;98.50
3086;DHT22;52812;48.960;9.108;2023-06-10T15:34:28;27.10;98.60
3086;DHT22;52812;48.960;9.108;2023-06-10T15:36:54;27.30;97.90
3086;DHT22;52812;48.960;9.108;2023-06-10T15:39:20;27.40;98.20
3086;DHT22;52812;48.960;9.108;2023-06-10T15:41:45;27.50;98.60
3086;DHT22;52812;48.960;9.108;2023-06-10T15:44:11;27.60;98.60
3086;DHT22;52812;48.960;9.108;2023-06-10T15:46:37;27.50;98.80
3086;DHT22;52812;48.960;9.108;2023-06-10T15:49:03;27.30;98.90
3086;DHT22;52812;48.960;9.108;2023-06-10T15:51:29;27.10;98.80
3086;DHT22;52812;48.960;9.108;2023-06-10T15:53:55;27.00;99.00
3086;DHT22;52812;48.960;9.108;2023-06-10T15:56:20;27.00;99.40
3086;DHT22;52812;48.960;9.108;2023-06-10T15:58:46;27.00;98.50
3086;DHT22;52812;48.960;9.108;2023-06-10T16:01:12;27.10;99.60
3086;DHT22;52812;48.960;9.108;2023-06-10T16:03:39;27.10;98.90